Park Rapids, Minnesota
Current Conditions -  °F | °C
As of 10:53 PM on Friday 28 Nov 2014 (Local Time) from KPKD Reporting Station
Overcast Overcast  
Wind Chill:   Ceiling: 1000
Heat Index: 16°   Visibility: 10mi
Dew Point: 13°   Wind: 14mph
Humidity: 88%   Direction: 150°SSE
Pressure: 29.6"   Gusts: NA
Location:  46.92°N, 95.06°W
Report Text: KPKD 290453Z AUTO 15012KT 10SM OVC010 M09/M11 A2960 RMK AO2 SLP054 T10891106
Loading
Personal Weather Stations






























Interactive Weather Map New forecast layout! Learn more

10-Day Weather Forecast

Advertisements
Track Severe Weather on mobile